Lynxville, Wisconsin
Current Conditions -  °F | °C
As of 7:15 PM on Monday 20 Oct 2014 (Local Time) from KPDC Reporting Station
Clear Clear  
Wind Chill: 57°   Ceiling: Unl
Heat Index: 57°   Visibility: 10mi
Dew Point: 40°   Wind: 3mph
Humidity: 54%   Direction: 350°N
Pressure: 29.99"   Gusts: NA
Location:  43.25°N, 91.06°W
Report Text: KPDC 210015Z AUTO 35003KT 10SM CLR 14/05 A2999 RMK AO2 T01380045
Loading
Personal Weather Stations






























Interactive Weather Map
Tropical Storm Tracking
New forecast layout! Learn more

10-Day Weather Forecast

Advertisements
Track Severe Weather on mobile